Time;durP1;ratioP1;P1;durP2;ratioP2;P2;SDS_P1;SDS_P2;PMS_P1;PMS_P2;Temp;Humidity;BMP_temperature;BMP_pressure;BME280_temperature;BME280_humidity;BME280_pressure;Samples;Min_cycle;Max_cycle;Signal;HPM_P1;HPM_P2
2021/08/28 00:00:45;;;;;;;7.82;4.18;;;14.90;99.90;;;;;;6126151;23;20013;-69
2021/08/28 00:03:11;;;;;;;8.10;4.20;;;14.90;99.90;;;;;;6150866;23;20041;-69
2021/08/28 00:05:37;;;;;;;10.30;4.75;;;14.90;99.90;;;;;;6150704;23;20022;-70
2021/08/28 00:08:03;;;;;;;10.73;4.45;;;14.90;99.90;;;;;;6150645;23;20025;-68
2021/08/28 00:10:28;;;;;;;10.73;4.65;;;14.90;99.90;;;;;;6150587;23;20045;-69
2021/08/28 00:12:54;;;;;;;10.73;5.00;;;15.00;99.90;;;;;;6150747;23;20010;-69
2021/08/28 00:15:20;;;;;;;11.73;4.88;;;15.00;99.90;;;;;;6150780;23;20015;-69
2021/08/28 00:17:46;;;;;;;9.60;4.90;;;15.00;99.90;;;;;;6126136;23;20152;-69
2021/08/28 00:20:12;;;;;;;9.50;4.95;;;14.90;99.90;;;;;;6150746;23;20021;-70
2021/08/28 00:22:38;;;;;;;10.63;4.80;;;14.90;99.90;;;;;;6150472;23;20049;-70
2021/08/28 00:25:05;;;;;;;7.38;4.45;;;14.90;99.90;;;;;;6152411;23;20014;-69
2021/08/28 00:27:33;;;;;;;10.88;4.40;;;14.90;99.90;;;;;;6126511;23;20412;-69
2021/08/28 00:29:58;;;;;;;11.98;4.93;;;14.90;99.90;;;;;;6152811;23;20018;-69
2021/08/28 00:32:24;;;;;;;11.02;4.85;;;15.00;99.90;;;;;;6150733;23;20010;-69
2021/08/28 00:34:49;;;;;;;10.07;4.88;;;14.90;99.90;;;;;;6126149;23;20061;-69
2021/08/28 00:37:15;;;;;;;13.07;5.53;;;15.00;99.90;;;;;;6152524;23;20009;-69
2021/08/28 00:39:40;;;;;;;9.13;4.72;;;15.00;99.90;;;;;;6150664;23;20096;-69
2021/08/28 00:42:06;;;;;;;11.07;5.13;;;15.00;99.90;;;;;;6150487;23;20025;-70
2021/08/28 00:44:31;;;;;;;8.85;4.75;;;15.00;99.90;;;;;;6150635;23;20028;-69
2021/08/28 00:46:57;;;;;;;9.52;4.88;;;15.10;99.90;;;;;;6150310;23;20032;-69
2021/08/28 00:49:24;;;;;;;13.93;5.60;;;15.00;99.90;;;;;;6150583;23;20446;-69
2021/08/28 00:51:49;;;;;;;9.50;4.80;;;15.10;99.90;;;;;;6150641;23;20399;-69
2021/08/28 00:54:15;;;;;;;10.32;5.00;;;15.10;99.90;;;;;;6127878;23;20010;-69
2021/08/28 00:56:41;;;;;;;11.95;5.38;;;15.10;99.90;;;;;;6152295;23;20354;-69
2021/08/28 00:59:07;;;;;;;11.07;4.93;;;15.10;99.90;;;;;;6152380;23;20018;-69
2021/08/28 01:01:36;;;;;;;8.55;5.32;;;15.20;99.90;;;;;;6154248;23;20016;-69
2021/08/28 01:04:05;;;;;;;8.60;4.93;;;15.20;99.90;;;;;;6152406;23;20453;-70
2021/08/28 01:06:48;;;;;;;8.93;4.93;;;15.20;99.90;;;;;;6152220;23;20017;-70
2021/08/28 01:09:25;;;;;;;9.93;5.60;;;15.20;99.90;;;;;;6152574;23;20450;-69
2021/08/28 01:11:58;;;;;;;12.90;6.72;;;15.30;99.90;;;;;;6152241;23;20017;-69
2021/08/28 01:14:27;;;;;;;9.80;5.65;;;15.30;99.90;;;;;;6152534;23;20052;-68
2021/08/28 01:16:58;;;;;;;10.32;5.93;;;15.30;99.90;;;;;;6152610;23;20493;-69
2021/08/28 01:19:36;;;;;;;13.20;6.40;;;15.40;99.90;;;;;;6128183;23;20013;-69
2021/08/28 01:22:08;;;;;;;13.95;6.40;;;15.40;99.90;;;;;;6151982;23;20091;-69
2021/08/28 01:24:35;;;;;;;11.85;6.85;;;15.30;99.90;;;;;;6152229;23;20036;-69
2021/08/28 01:27:10;;;;;;;11.80;6.97;;;15.40;99.90;;;;;;6151927;23;20457;-69
2021/08/28 01:29:37;;;;;;;11.85;6.40;;;15.40;99.90;;;;;;6151982;23;20025;-69
2021/08/28 01:32:04;;;;;;;14.77;6.90;;;15.30;99.90;;;;;;6151967;23;20444;-69
2021/08/28 01:34:32;;;;;;;10.07;6.65;;;15.30;99.90;;;;;;6127740;23;20060;-69
2021/08/28 01:36:58;;;;;;;12.38;7.10;;;15.30;99.90;;;;;;6127344;23;20022;-69
2021/08/28 01:39:24;;;;;;;9.63;6.78;;;15.30;99.90;;;;;;6152018;23;20061;-68
2021/08/28 01:41:54;;;;;;;11.90;7.57;;;15.30;99.90;;;;;;6152151;23;20378;-69
2021/08/28 01:44:21;;;;;;;16.90;6.93;;;15.30;99.90;;;;;;6127361;23;20485;-69
2021/08/28 01:46:48;;;;;;;11.27;5.60;;;15.30;99.90;;;;;;6151921;23;20014;-69
2021/08/28 01:49:15;;;;;;;8.80;6.28;;;15.30;99.90;;;;;;6151897;23;20442;-69
2021/08/28 01:51:41;;;;;;;11.02;6.40;;;15.30;99.90;;;;;;6152119;23;20014;-68
2021/08/28 01:54:07;;;;;;;10.93;6.45;;;15.20;99.90;;;;;;6153839;23;20014;-69
2021/08/28 01:56:32;;;;;;;11.10;6.60;;;15.30;99.90;;;;;;6153538;23;20013;-69
2021/08/28 01:59:00;;;;;;;8.23;5.55;;;15.20;99.90;;;;;;6151620;23;20021;-69
2021/08/28 02:01:26;;;;;;;12.55;6.50;;;15.30;99.90;;;;;;6151815;23;20025;-69
2021/08/28 02:03:52;;;;;;;12.27;6.85;;;15.20;99.90;;;;;;6151210;23;20394;-70
2021/08/28 02:06:21;;;;;;;10.10;6.55;;;15.30;99.90;;;;;;6152034;23;20048;-69
2021/08/28 02:08:57;;;;;;;9.55;6.43;;;15.20;99.90;;;;;;6153271;23;20018;-69
2021/08/28 02:11:29;;;;;;;13.55;6.43;;;15.20;99.90;;;;;;6151817;23;20070;-68
2021/08/28 02:14:06;;;;;;;;;;;15.30;99.90;;;;;;6152261;23;20025;-69
2021/08/28 02:16:34;;;;;;;10.05;6.20;;;15.20;99.90;;;;;;6151911;23;20253;-69
2021/08/28 02:19:10;;;;;;;13.23;6.13;;;15.20;99.90;;;;;;6151612;23;20022;-69
2021/08/28 02:21:37;;;;;;;12.98;6.35;;;15.20;99.90;;;;;;6151523;23;20423;-69
2021/08/28 02:24:10;;;;;;;8.55;6.25;;;15.20;99.90;;;;;;6151322;23;20028;-69
2021/08/28 02:26:40;;;;;;;8.73;6.50;;;15.20;99.90;;;;;;6153101;23;20022;-69
2021/08/28 02:29:12;;;;;;;11.27;5.68;;;15.20;99.90;;;;;;6151439;23;20021;-69
2021/08/28 02:31:42;;;;;;;11.93;5.90;;;15.30;99.90;;;;;;6126976;23;20025;-69
2021/08/28 02:34:10;;;;;;;8.55;6.00;;;15.30;99.90;;;;;;6151382;23;20020;-68
2021/08/28 02:36:39;;;;;;;11.65;6.30;;;15.30;99.90;;;;;;6151416;23;20017;-69
2021/08/28 02:39:07;;;;;;;7.65;5.10;;;15.30;99.90;;;;;;6152984;23;20009;-69
2021/08/28 02:41:33;;;;;;;8.57;6.15;;;15.30;99.90;;;;;;6151456;23;20045;-68
2021/08/28 02:44:00;;;;;;;11.02;5.95;;;15.30;99.90;;;;;;6151257;23;20021;-69
2021/08/28 02:46:30;;;;;;;12.85;5.60;;;15.30;99.90;;;;;;6151371;23;20092;-68
2021/08/28 02:48:57;;;;;;;8.23;5.15;;;15.20;99.90;;;;;;6151255;23;20025;-68
2021/08/28 02:51:23;;;;;;;8.57;5.20;;;15.20;99.90;;;;;;6151464;23;20353;-69
2021/08/28 02:53:49;;;;;;;8.57;5.32;;;15.20;99.90;;;;;;6151388;23;20005;-68
2021/08/28 02:56:19;;;;;;;10.20;5.82;;;15.20;99.90;;;;;;6126827;23;20018;-68
2021/08/28 02:58:45;;;;;;;8.95;5.22;;;15.20;99.90;;;;;;6151318;23;20116;-69
2021/08/28 03:01:12;;;;;;;9.32;5.43;;;15.20;99.90;;;;;;6151272;23;20045;-69
2021/08/28 03:03:39;;;;;;;9.05;5.28;;;15.20;99.90;;;;;;6151146;23;20021;-69
2021/08/28 03:06:05;;;;;;;10.18;5.60;;;15.20;99.90;;;;;;6153067;23;20010;-69
2021/08/28 03:08:31;;;;;;;7.10;5.28;;;15.20;99.90;;;;;;6152972;23;20097;-69
2021/08/28 03:10:57;;;;;;;11.25;5.82;;;15.20;99.90;;;;;;6126579;23;20419;-69
2021/08/28 03:13:23;;;;;;;12.35;5.80;;;15.20;99.90;;;;;;6151219;23;20410;-69
2021/08/28 03:15:51;;;;;;;12.07;5.88;;;15.20;99.90;;;;;;6150959;23;20010;-69
2021/08/28 03:18:21;;;;;;;6.28;5.25;;;15.20;99.90;;;;;;6151540;23;20562;-69
2021/08/28 03:20:50;;;;;;;11.40;5.85;;;15.20;99.90;;;;;;6150926;23;20021;-68
2021/08/28 03:23:18;;;;;;;10.80;5.25;;;15.20;99.90;;;;;;6151232;23;20025;-68
2021/08/28 03:25:44;;;;;;;9.90;5.45;;;15.20;99.90;;;;;;6126370;23;20021;-69
2021/08/28 03:28:12;;;;;;;10.27;6.25;;;15.30;99.90;;;;;;6150985;23;20014;-68
2021/08/28 03:30:43;;;;;;;9.60;6.15;;;15.30;99.90;;;;;;6150956;23;20010;-69
2021/08/28 03:33:12;;;;;;;11.27;6.50;;;15.30;99.90;;;;;;6152995;23;20021;-70
2021/08/28 03:35:38;;;;;;;14.95;7.55;;;15.40;99.90;;;;;;6152884;23;20113;-68
2021/08/28 03:38:04;;;;;;;10.57;6.53;;;15.30;99.90;;;;;;6153013;23;20017;-68
2021/08/28 03:40:29;;;;;;;10.18;6.43;;;15.30;99.90;;;;;;6150839;23;20104;-70
2021/08/28 03:42:55;;;;;;;12.25;7.45;;;15.30;99.90;;;;;;6150932;23;20017;-70
2021/08/28 03:45:27;;;;;;;13.43;6.80;;;15.30;99.90;;;;;;6150784;23;20441;-69
2021/08/28 03:47:53;;;;;;;14.90;7.10;;;15.30;99.90;;;;;;6150714;23;20024;-70
2021/08/28 03:50:19;;;;;;;14.32;7.57;;;15.30;99.90;;;;;;6150834;23;20088;-69
2021/08/28 03:52:44;;;;;;;10.95;7.35;;;15.30;99.90;;;;;;6150878;23;20333;-69
2021/08/28 03:55:10;;;;;;;12.40;7.38;;;15.40;99.90;;;;;;6150682;23;20013;-69
2021/08/28 03:57:36;;;;;;;13.52;7.05;;;15.30;99.90;;;;;;6150917;23;20076;-69
2021/08/28 04:00:03;;;;;;;12.18;7.63;;;15.30;99.90;;;;;;6150698;23;20056;-69
2021/08/28 04:02:28;;;;;;;11.27;7.60;;;15.30;99.90;;;;;;6152840;23;20052;-69
2021/08/28 04:04:54;;;;;;;12.70;7.68;;;15.30;99.90;;;;;;6150726;23;20322;-69
2021/08/28 04:07:19;;;;;;;12.68;7.75;;;15.30;99.90;;;;;;6150903;23;20018;-69
2021/08/28 04:09:45;;;;;;;12.98;7.38;;;15.30;99.90;;;;;;6150762;23;20095;-69
2021/08/28 04:12:10;;;;;;;14.35;8.23;;;15.40;99.90;;;;;;6150750;23;20021;-68
2021/08/28 04:14:36;;;;;;;14.38;9.02;;;15.30;99.90;;;;;;6150686;23;20028;-69
2021/08/28 04:17:02;;;;;;;13.40;7.68;;;15.30;99.90;;;;;;6152379;23;20108;-69
2021/08/28 04:19:27;;;;;;;11.82;7.45;;;15.30;99.90;;;;;;6150680;23;20021;-68
2021/08/28 04:21:53;;;;;;;10.75;7.10;;;15.30;99.90;;;;;;6150579;23;20057;-68
2021/08/28 04:24:18;;;;;;;14.65;8.27;;;15.30;99.90;;;;;;6126131;23;20018;-69
2021/08/28 04:26:44;;;;;;;15.27;7.97;;;15.30;99.90;;;;;;6150590;23;20281;-69
2021/08/28 04:29:10;;;;;;;11.85;7.78;;;15.40;99.90;;;;;;6152699;23;20021;-69
2021/08/28 04:31:35;;;;;;;11.32;7.35;;;15.30;99.90;;;;;;6154103;23;20462;-69
2021/08/28 04:34:01;;;;;;;13.23;7.65;;;15.40;99.90;;;;;;6128068;23;20097;-69
2021/08/28 04:36:27;;;;;;;14.48;7.50;;;15.40;99.90;;;;;;6152482;23;20052;-69
2021/08/28 04:38:52;;;;;;;12.90;6.85;;;15.40;99.90;;;;;;6152679;23;20045;-69
2021/08/28 04:41:18;;;;;;;12.57;7.47;;;15.40;99.90;;;;;;6152528;23;20045;-69
2021/08/28 04:43:43;;;;;;;14.50;6.88;;;15.40;99.90;;;;;;6152838;23;20322;-69
2021/08/28 04:46:09;;;;;;;10.80;6.32;;;15.40;99.90;;;;;;6152499;23;20032;-68
2021/08/28 04:48:35;;;;;;;13.98;7.10;;;15.40;99.90;;;;;;6152901;23;20337;-69
2021/08/28 04:51:02;;;;;;;13.20;6.82;;;15.50;99.90;;;;;;6152371;23;20436;-69
2021/08/28 04:53:28;;;;;;;14.50;7.50;;;15.40;99.90;;;;;;6128222;23;20017;-69
2021/08/28 04:55:53;;;;;;;12.70;7.25;;;15.50;99.90;;;;;;6151881;23;20537;-69
2021/08/28 04:58:19;;;;;;;19.83;8.40;;;15.50;99.90;;;;;;6152556;23;20013;-69
2021/08/28 05:00:45;;;;;;;11.13;6.80;;;15.50;99.90;;;;;;6152178;23;20017;-69
2021/08/28 05:03:10;;;;;;;11.20;6.95;;;15.50;99.90;;;;;;6152405;23;20024;-69
2021/08/28 05:05:36;;;;;;;14.48;7.05;;;15.50;99.90;;;;;;6127745;23;20361;-69
2021/08/28 05:08:01;;;;;;;13.20;6.97;;;15.60;99.90;;;;;;6127659;23;20349;-69
2021/08/28 05:10:27;;;;;;;13.73;6.68;;;15.60;99.90;;;;;;6152326;23;20021;-70
2021/08/28 05:12:53;;;;;;;12.18;5.22;;;15.60;99.90;;;;;;6154565;23;20017;-69
2021/08/28 05:15:18;;;;;;;14.48;6.30;;;15.60;99.90;;;;;;6152321;23;20066;-69
2021/08/28 05:17:44;;;;;;;14.02;7.38;;;15.60;99.90;;;;;;6154153;23;20018;-69
2021/08/28 05:20:10;;;;;;;13.73;6.68;;;15.60;99.90;;;;;;6152294;23;20017;-69
2021/08/28 05:22:35;;;;;;;13.35;5.90;;;15.60;99.90;;;;;;6152144;23;20486;-70
2021/08/28 05:25:01;;;;;;;12.30;6.53;;;15.60;99.90;;;;;;6127911;23;20017;-69
2021/08/28 05:27:27;;;;;;;15.40;6.30;;;15.60;99.90;;;;;;6152136;23;20297;-69
2021/08/28 05:29:52;;;;;;;14.13;6.82;;;15.60;99.90;;;;;;6127570;23;20061;-69
2021/08/28 05:32:18;;;;;;;13.65;6.70;;;15.60;99.90;;;;;;6152066;23;20078;-69
2021/08/28 05:34:43;;;;;;;12.40;6.78;;;15.60;99.90;;;;;;6154085;23;20014;-70
2021/08/28 05:37:09;;;;;;;11.93;6.47;;;15.70;99.90;;;;;;6151984;23;20497;-69
2021/08/28 05:39:35;;;;;;;10.40;5.90;;;15.70;99.90;;;;;;6151452;23;20392;-69
2021/08/28 05:42:00;;;;;;;12.75;5.88;;;15.80;99.90;;;;;;6127257;23;20059;-69
2021/08/28 05:44:26;;;;;;;12.43;5.43;;;15.70;99.90;;;;;;6151992;23;20092;-69
2021/08/28 05:46:52;;;;;;;9.70;5.10;;;15.80;99.90;;;;;;6151714;23;20013;-69
2021/08/28 05:49:18;;;;;;;13.43;6.32;;;15.70;99.90;;;;;;6151902;23;20017;-70
2021/08/28 05:51:43;;;;;;;11.73;5.95;;;15.70;99.90;;;;;;6151755;23;20472;-70
2021/08/28 05:54:09;;;;;;;12.65;6.70;;;15.60;99.90;;;;;;6127390;23;20014;-70
2021/08/28 05:56:34;;;;;;;10.80;6.13;;;15.70;99.90;;;;;;6153681;23;20442;-70
2021/08/28 05:59:00;;;;;;;9.70;6.15;;;15.70;99.90;;;;;;6151772;23;20373;-69
2021/08/28 06:01:25;;;;;;;14.18;6.15;;;15.80;99.90;;;;;;6153605;23;20336;-69
2021/08/28 06:03:51;;;;;;;10.85;6.30;;;15.70;99.90;;;;;;6151870;23;20018;-69
2021/08/28 06:06:16;;;;;;;10.40;5.80;;;15.80;99.90;;;;;;6152017;23;20040;-69
2021/08/28 06:08:42;;;;;;;9.80;5.82;;;15.80;99.90;;;;;;6151548;23;20044;-70
2021/08/28 06:11:08;;;;;;;14.25;6.28;;;15.80;99.90;;;;;;6151678;23;20022;-69
2021/08/28 06:13:33;;;;;;;10.45;6.07;;;15.90;99.90;;;;;;6151522;23;20446;-69
2021/08/28 06:15:59;;;;;;;14.85;6.15;;;15.80;99.90;;;;;;6151548;23;20261;-69
2021/08/28 06:18:24;;;;;;;14.52;5.63;;;15.80;99.90;;;;;;6151839;23;20068;-69
2021/08/28 06:20:50;;;;;;;11.52;5.75;;;15.90;99.90;;;;;;6151527;23;20463;-69
2021/08/28 06:23:16;;;;;;;15.35;6.03;;;15.90;99.90;;;;;;6151293;23;20088;-69
2021/08/28 06:25:42;;;;;;;12.88;6.07;;;16.00;99.90;;;;;;6151557;23;20066;-69
2021/08/28 06:28:07;;;;;;;13.05;6.45;;;16.00;99.90;;;;;;6151345;23;20091;-70
2021/08/28 06:30:33;;;;;;;11.32;6.13;;;16.00;99.90;;;;;;6126963;23;20033;-70
2021/08/28 06:32:58;;;;;;;14.02;6.25;;;16.00;99.90;;;;;;6151396;23;20092;-70
2021/08/28 06:35:24;;;;;;;13.05;6.28;;;16.00;99.90;;;;;;6151421;23;20093;-69
2021/08/28 06:37:50;;;;;;;13.70;6.20;;;16.10;99.90;;;;;;6151275;23;20096;-69
2021/08/28 06:40:15;;;;;;;12.48;5.93;;;16.00;99.90;;;;;;6153012;23;20445;-70
2021/08/28 06:42:42;;;;;;;13.25;6.13;;;16.10;99.90;;;;;;6151295;23;20021;-69
2021/08/28 06:45:08;;;;;;;9.73;6.32;;;16.10;99.90;;;;;;6151317;23;20020;-69
2021/08/28 06:47:33;;;;;;;12.07;6.50;;;16.10;99.90;;;;;;6151074;23;20017;-70
2021/08/28 06:49:59;;;;;;;14.52;6.13;;;16.20;99.90;;;;;;6127024;23;20021;-69
2021/08/28 06:52:24;;;;;;;10.20;5.22;;;16.30;99.90;;;;;;6151246;23;20021;-69
2021/08/28 06:54:50;;;;;;;8.93;5.85;;;16.30;99.90;;;;;;6151299;23;20345;-69
2021/08/28 06:57:15;;;;;;;8.10;5.25;;;16.30;99.90;;;;;;6151593;23;20021;-69
2021/08/28 06:59:42;;;;;;;11.10;4.95;;;16.40;99.90;;;;;;6151014;23;20214;-69
2021/08/28 07:02:08;;;;;;;9.30;5.28;;;16.50;99.90;;;;;;6151281;23;20422;-69
2021/08/28 07:04:34;;;;;;;6.45;4.32;;;16.50;99.90;;;;;;6151072;23;20044;-69
2021/08/28 07:07:00;;;;;;;8.32;4.70;;;16.50;99.90;;;;;;6151109;23;20097;-70
2021/08/28 07:09:25;;;;;;;8.82;4.90;;;16.50;99.90;;;;;;6151030;23;20045;-70
2021/08/28 07:11:51;;;;;;;9.43;5.63;;;16.40;99.90;;;;;;6126686;23;20014;-70
2021/08/28 07:14:17;;;;;;;6.28;4.63;;;16.30;99.90;;;;;;6126664;23;20245;-69
2021/08/28 07:16:43;;;;;;;8.93;4.82;;;16.80;99.90;;;;;;6151292;23;20018;-70
2021/08/28 07:19:08;;;;;;;10.98;5.53;;;17.40;99.90;;;;;;6126578;23;20017;-70
2021/08/28 07:21:34;;;;;;;8.70;4.57;;;18.10;99.90;;;;;;6151012;23;20027;-70
2021/08/28 07:24:00;;;;;;;9.60;5.18;;;19.20;99.90;;;;;;6150940;23;20500;-70
2021/08/28 07:26:26;;;;;;;6.38;3.72;;;19.40;99.90;;;;;;6151324;23;20056;-71
2021/08/28 07:28:51;;;;;;;7.63;3.88;;;18.80;99.90;;;;;;6152779;23;20469;-70
2021/08/28 07:31:17;;;;;;;6.25;4.00;;;18.40;99.90;;;;;;6151055;23;20013;-70
2021/08/28 07:33:43;;;;;;;10.25;4.60;;;18.20;99.90;;;;;;6150877;23;20128;-70
2021/08/28 07:36:08;;;;;;;8.43;4.40;;;17.80;99.90;;;;;;6126379;23;20014;-70
2021/08/28 07:38:34;;;;;;;5.40;3.92;;;17.80;99.90;;;;;;6153107;23;20013;-70
2021/08/28 07:41:01;;;;;;;8.55;3.85;;;18.00;99.90;;;;;;6151319;23;20021;-70
2021/08/28 07:43:26;;;;;;;8.35;4.13;;;18.00;99.90;;;;;;6150770;23;20378;-70
2021/08/28 07:45:52;;;;;;;7.40;4.20;;;18.00;99.90;;;;;;6150865;23;20341;-70
2021/08/28 07:48:17;;;;;;;6.70;3.50;;;18.10;99.90;;;;;;6150538;23;20026;-71
2021/08/28 07:50:43;;;;;;;9.02;4.10;;;18.30;99.90;;;;;;6150839;23;20018;-71
2021/08/28 07:53:08;;;;;;;10.52;4.50;;;18.50;99.90;;;;;;6150865;23;20353;-71
2021/08/28 07:55:34;;;;;;;8.15;4.13;;;18.60;99.90;;;;;;6126090;23;20014;-71
2021/08/28 07:57:59;;;;;;;8.65;3.70;;;18.70;99.90;;;;;;6150865;23;20014;-71
2021/08/28 08:00:25;;;;;;;7.72;4.20;;;18.80;99.90;;;;;;6150663;23;20104;-71
2021/08/28 08:02:51;;;;;;;8.60;3.85;;;18.80;99.90;;;;;;6150794;23;20009;-70
2021/08/28 08:05:16;;;;;;;7.78;3.35;;;18.90;99.90;;;;;;6126190;23;20064;-71
2021/08/28 08:07:42;;;;;;;8.68;3.88;;;19.00;99.90;;;;;;6152659;23;20100;-71
2021/08/28 08:10:08;;;;;;;4.97;3.42;;;19.10;99.90;;;;;;6152308;23;20160;-71
2021/08/28 08:12:34;;;;;;;6.28;3.20;;;19.10;99.90;;;;;;6152924;23;20009;-71
2021/08/28 08:15:00;;;;;;;8.00;3.28;;;19.00;99.90;;;;;;6150775;23;20130;-71
2021/08/28 08:17:25;;;;;;;6.00;3.30;;;19.00;99.90;;;;;;6150733;23;20057;-71
2021/08/28 08:19:51;;;;;;;5.18;3.47;;;18.90;99.90;;;;;;6150562;23;20467;-71
2021/08/28 08:22:17;;;;;;;6.00;3.42;;;18.80;99.90;;;;;;6152086;23;20251;-71
2021/08/28 08:24:43;;;;;;;5.05;3.60;;;18.60;99.90;;;;;;6125892;23;20029;-71
2021/08/28 08:27:09;;;;;;;7.07;3.38;;;18.50;99.90;;;;;;6125900;23;20010;-71
2021/08/28 08:29:34;;;;;;;6.93;3.00;;;18.30;99.90;;;;;;6152407;23;20073;-71
2021/08/28 08:32:01;;;;;;;5.43;3.20;;;18.20;99.90;;;;;;6152528;23;20084;-71
2021/08/28 08:34:26;;;;;;;7.93;3.10;;;18.10;99.90;;;;;;6125852;23;20020;-71
2021/08/28 08:36:52;;;;;;;6.78;3.13;;;18.10;99.90;;;;;;6152446;23;20018;-71
2021/08/28 08:39:18;;;;;;;5.85;3.22;;;18.40;99.90;;;;;;6125940;23;20017;-71
2021/08/28 08:41:45;;;;;;;5.47;3.30;;;18.60;99.90;;;;;;6101622;23;20149;-72
2021/08/28 08:44:12;;;;;;;5.78;2.92;;;18.40;99.90;;;;;;6101610;23;20010;-71
2021/08/28 08:46:38;;;;;;;6.75;3.28;;;18.70;99.90;;;;;;6125934;23;20104;-71
2021/08/28 08:49:05;;;;;;;5.68;2.72;;;18.40;99.90;;;;;;6125994;23;20040;-71
2021/08/28 08:51:34;;;;;;;6.72;2.88;;;18.50;99.90;;;;;;6125976;23;20017;-71
2021/08/28 08:54:00;;;;;;;6.15;2.95;;;18.60;99.90;;;;;;6152645;23;20014;-71
2021/08/28 08:56:26;;;;;;;5.60;2.80;;;18.70;99.90;;;;;;6126017;23;20397;-72
2021/08/28 08:58:52;;;;;;;7.30;3.08;;;18.70;99.90;;;;;;6152620;23;20017;-71
2021/08/28 09:01:18;;;;;;;4.28;2.58;;;18.80;99.90;;;;;;6125815;23;20076;-71
2021/08/28 09:03:44;;;;;;;4.53;2.58;;;18.70;99.90;;;;;;6126035;23;20449;-71
2021/08/28 09:06:10;;;;;;;5.65;2.60;;;18.60;99.90;;;;;;6152336;23;20080;-71
2021/08/28 09:08:35;;;;;;;7.40;2.58;;;18.50;99.90;;;;;;6125799;23;20153;-71
2021/08/28 09:11:01;;;;;;;3.40;2.15;;;18.80;99.90;;;;;;6101358;23;20041;-71
2021/08/28 09:13:27;;;;;;;6.80;2.63;;;18.80;99.90;;;;;;6152628;23;20013;-71
2021/08/28 09:16:07;;;;;;;4.25;2.22;;;18.90;99.90;;;;;;6153723;23;20048;-71
2021/08/28 09:18:52;;;;;;;2.33;1.67;;;19.10;99.90;;;;;;6154174;23;20017;-71
2021/08/28 09:21:21;;;;;;;5.47;2.35;;;19.60;99.90;;;;;;6127245;23;20139;-71
2021/08/28 09:23:46;;;;;;;4.03;2.38;;;19.80;99.90;;;;;;6154379;23;20397;-71
2021/08/28 09:26:27;;;;;;;4.50;2.20;;;19.90;99.90;;;;;;6127527;23;20009;-72
2021/08/28 09:28:54;;;;;;;5.15;2.47;;;20.00;99.90;;;;;;6103225;23;20024;-71
2021/08/28 09:31:55;;;;;;;4.90;1.90;;;19.50;99.90;;;;;;6153619;23;20469;-72
2021/08/28 09:34:25;;;;;;;3.30;2.05;;;19.10;99.90;;;;;;6152905;23;20337;-71
2021/08/28 09:37:11;;;;;;;5.80;2.30;;;19.20;99.90;;;;;;6135790;23;20344;-69
2021/08/28 09:39:45;;;;;;;6.35;2.30;;;18.70;99.90;;;;;;6153473;23;20480;-69
2021/08/28 09:42:17;;;;;;;5.85;2.28;;;18.90;99.90;;;;;;6151911;23;20037;-70
2021/08/28 09:44:44;;;;;;;5.05;2.20;;;18.50;99.90;;;;;;6152045;23;20016;-69
2021/08/28 09:47:12;;;;;;;4.15;2.08;;;18.50;99.90;;;;;;6151636;23;20048;-69
2021/08/28 09:49:46;;;;;;;4.25;2.20;;;18.50;99.90;;;;;;6151879;23;20017;-69
2021/08/28 09:52:17;;;;;;;5.03;2.03;;;18.40;99.90;;;;;;6153669;23;20017;-69
2021/08/28 09:54:44;;;;;;;5.40;1.80;;;18.10;99.90;;;;;;6151949;23;20052;-70
2021/08/28 09:57:09;;;;;;;4.07;1.92;;;18.20;99.90;;;;;;6151685;23;20389;-70
2021/08/28 09:59:35;;;;;;;3.50;1.80;;;18.10;99.90;;;;;;6151792;23;20093;-70
2021/08/28 10:02:06;;;;;;;5.03;2.28;;;18.00;99.90;;;;;;6151711;23;20025;-70
2021/08/28 10:04:51;;;;;;;5.20;2.78;;;18.10;99.90;;;;;;6151835;23;20017;-69
2021/08/28 10:07:25;;;;;;;4.80;2.50;;;18.30;99.90;;;;;;6151697;23;20013;-69
2021/08/28 10:09:56;;;;;;;3.90;2.25;;;18.50;99.90;;;;;;6153779;23;20024;-70
2021/08/28 10:12:23;;;;;;;7.18;2.30;;;18.30;99.90;;;;;;6153495;23;20013;-70
2021/08/28 10:14:50;;;;;;;5.28;1.90;;;18.60;99.90;;;;;;6151634;23;20075;-70
2021/08/28 10:17:17;;;;;;;6.07;1.85;;;18.80;99.90;;;;;;6151530;23;20014;-70
2021/08/28 10:19:47;;;;;;;5.05;1.90;;;18.60;99.90;;;;;;6152002;23;20390;-70
2021/08/28 10:22:15;;;;;;;4.45;2.10;;;18.70;99.90;;;;;;6151402;23;20088;-70
2021/08/28 10:24:44;;;;;;;4.00;1.55;;;18.90;99.90;;;;;;6151191;23;20013;-69
2021/08/28 10:27:12;;;;;;;5.78;1.90;;;19.20;99.90;;;;;;6151251;23;20092;-69
2021/08/28 10:29:38;;;;;;;4.50;1.90;;;18.90;99.90;;;;;;6151641;23;20013;-70
2021/08/28 10:32:05;;;;;;;4.03;2.22;;;18.70;99.90;;;;;;6152966;23;20070;-69
2021/08/28 10:34:32;;;;;;;5.65;2.10;;;18.80;99.90;;;;;;6126974;23;20010;-70
2021/08/28 10:36:58;;;;;;;6.22;2.35;;;18.90;99.90;;;;;;6151152;23;20021;-69
2021/08/28 10:39:23;;;;;;;4.50;1.77;;;18.70;99.90;;;;;;6153419;23;20315;-70
2021/08/28 10:41:50;;;;;;;4.82;1.90;;;18.80;99.90;;;;;;6151409;23;20080;-70
2021/08/28 10:44:16;;;;;;;4.53;1.92;;;18.60;99.90;;;;;;6151464;23;20021;-70
2021/08/28 10:46:42;;;;;;;3.50;1.80;;;18.60;99.90;;;;;;6151280;23;20437;-69
2021/08/28 10:49:11;;;;;;;5.20;1.65;;;18.80;99.90;;;;;;6151355;23;20009;-69
2021/08/28 10:51:42;;;;;;;6.88;1.90;;;19.10;99.90;;;;;;6152883;23;20009;-70
2021/08/28 10:54:11;;;;;;;4.05;1.70;;;19.50;99.90;;;;;;6151342;23;20025;-70
2021/08/28 10:56:42;;;;;;;4.07;1.58;;;19.50;99.90;;;;;;6126605;23;20461;-68
2021/08/28 10:59:27;;;;;;;5.35;2.38;;;19.40;99.90;;;;;;6153277;23;20010;-69
2021/08/28 11:02:09;;;;;;;8.80;1.80;;;19.10;99.90;;;;;;6151000;23;20023;-69
2021/08/28 11:04:36;;;;;;;;;;;18.90;99.90;;;;;;6127202;23;20041;-70
2021/08/28 11:07:27;;;;;;;2.95;1.70;;;18.90;99.90;;;;;;6152955;23;20302;-70
2021/08/28 11:10:12;;;;;;;4.50;1.58;;;18.30;99.90;;;;;;6126681;23;20085;-70
2021/08/28 11:12:49;;;;;;;4.20;1.67;;;18.10;99.90;;;;;;6150950;23;20021;-70
2021/08/28 11:15:30;;;;;;;5.88;1.63;;;18.10;99.90;;;;;;6152708;23;20472;-70
2021/08/28 11:17:57;;;;;;;4.75;1.67;;;18.00;99.90;;;;;;6150801;23;20153;-70
2021/08/28 11:20:38;;;;;;;5.05;1.80;;;17.90;99.90;;;;;;6151105;23;20092;-70
2021/08/28 11:23:12;;;;;;;5.15;1.50;;;17.80;99.90;;;;;;6152931;23;20017;-69
2021/08/28 11:25:40;;;;;;;6.50;1.98;;;17.90;99.90;;;;;;6126517;23;20118;-69
2021/08/28 11:28:07;;;;;;;4.50;1.42;;;18.10;99.90;;;;;;6150767;23;20109;-69
2021/08/28 11:30:44;;;;;;;4.15;1.80;;;18.20;99.90;;;;;;6151034;23;20010;-69
2021/08/28 11:33:32;;;;;;;4.57;1.60;;;18.20;99.90;;;;;;6150796;23;20013;-69
2021/08/28 11:36:17;;;;;;;4.47;1.90;;;18.20;99.90;;;;;;6152514;23;20425;-70
2021/08/28 11:38:49;;;;;;;6.43;1.77;;;18.30;99.90;;;;;;6182477;23;20025;-70
2021/08/28 11:41:19;;;;;;;5.20;2.22;;;18.40;99.90;;;;;;6155864;23;20012;-70
2021/08/28 11:43:46;;;;;;;3.58;1.60;;;18.80;99.90;;;;;;6155558;23;20017;-69
2021/08/28 11:46:17;;;;;;;3.28;1.50;;;18.70;99.90;;;;;;6155656;23;20039;-70
2021/08/28 11:48:45;;;;;;;2.85;1.52;;;18.90;99.90;;;;;;6155401;23;20344;-69
2021/08/28 11:51:16;;;;;;;5.38;1.80;;;19.10;99.90;;;;;;6156232;23;20013;-70
2021/08/28 11:53:49;;;;;;;3.97;1.70;;;19.20;99.90;;;;;;6155490;23;20017;-70
2021/08/28 11:56:17;;;;;;;3.95;1.55;;;19.40;99.90;;;;;;6155740;23;20059;-71
2021/08/28 11:59:03;;;;;;;4.20;1.42;;;19.10;99.90;;;;;;6155541;23;20013;-70
2021/08/28 12:01:42;;;;;;;4.30;1.45;;;19.20;99.90;;;;;;6155640;23;20013;-70
2021/08/28 12:04:14;;;;;;;3.88;1.67;;;19.30;99.90;;;;;;6155555;23;20099;-70
2021/08/28 12:06:41;;;;;;;4.22;1.70;;;19.30;99.90;;;;;;6155617;23;20012;-71
2021/08/28 12:09:09;;;;;;;4.72;1.52;;;19.20;99.90;;;;;;6155542;23;20005;-70
2021/08/28 12:11:43;;;;;;;4.20;1.50;;;19.20;99.90;;;;;;6155602;23;20012;-71
2021/08/28 12:14:10;;;;;;;4.20;1.50;;;19.30;99.90;;;;;;6155483;23;20047;-70
2021/08/28 12:16:37;;;;;;;7.47;1.63;;;19.20;99.90;;;;;;6155629;23;20013;-70
2021/08/28 12:19:25;;;;;;;4.80;1.45;;;19.30;99.90;;;;;;6155553;23;20021;-70
2021/08/28 12:21:54;;;;;;;2.72;1.25;;;19.40;99.90;;;;;;6130836;23;20009;-71
2021/08/28 12:24:20;;;;;;;3.78;1.60;;;19.40;99.90;;;;;;6155399;23;20009;-69
2021/08/28 12:26:52;;;;;;;3.90;1.42;;;19.30;99.90;;;;;;6130868;23;20442;-70
2021/08/28 12:29:33;;;;;;;2.97;1.27;;;19.30;99.90;;;;;;6130872;23;20076;-70
2021/08/28 12:32:10;;;;;;;2.92;1.35;;;19.10;99.90;;;;;;6155626;23;20070;-70
2021/08/28 12:34:38;;;;;;;4.70;1.55;;;19.10;99.90;;;;;;6155484;23;20500;-70
2021/08/28 12:37:05;;;;;;;3.53;1.50;;;19.20;99.90;;;;;;6181774;23;20349;-70
2021/08/28 12:39:32;;;;;;;1.65;1.15;;;19.10;99.90;;;;;;6155383;23;20027;-70
2021/08/28 12:41:58;;;;;;;3.63;1.27;;;18.90;99.90;;;;;;6155475;23;20017;-70
2021/08/28 12:44:25;;;;;;;2.35;1.20;;;18.90;99.90;;;;;;6155365;23;20380;-70
2021/08/28 12:46:52;;;;;;;3.08;1.58;;;18.70;99.90;;;;;;6155465;23;20148;-70